Time;durP1;ratioP1;P1;durP2;ratioP2;P2;SDS_P1;SDS_P2;PMS_P1;PMS_P2;Temp;Humidity;BMP_temperature;BMP_pressure;BME280_temperature;BME280_humidity;BME280_pressure;Samples;Min_cycle;Max_cycle;Signal;HPM_P1;HPM_P2
2022/09/03 00:01:27;;;;;;;1.33;1.23;;;15.50;99.90;;;;;;4864967;29;20456;-56
2022/09/03 00:03:58;;;;;;;2.30;1.40;;;15.50;99.90;;;;;;4876814;29;20446;-56
2022/09/03 00:06:34;;;;;;;2.13;1.40;;;15.50;99.90;;;;;;4877797;29;20412;-56
2022/09/03 00:08:59;;;;;;;5.57;1.80;;;15.40;99.90;;;;;;4876770;29;20535;-57
2022/09/03 00:11:55;;;;;;;1.87;1.47;;;15.40;99.90;;;;;;4877650;29;20494;-56
2022/09/03 00:14:35;;;;;;;1.83;1.30;;;15.30;99.90;;;;;;4876461;29;20207;-56
2022/09/03 00:17:15;;;;;;;2.40;1.53;;;15.30;99.90;;;;;;4877327;29;20805;-56
2022/09/03 00:19:50;;;;;;;2.93;1.43;;;15.20;99.90;;;;;;4877610;29;20471;-51
2022/09/03 00:22:21;;;;;;;1.50;1.40;;;15.20;99.90;;;;;;4880288;29;20408;-52
2022/09/03 00:24:48;;;;;;;1.90;1.23;;;15.20;99.90;;;;;;4880195;29;20455;-51
2022/09/03 00:27:19;;;;;;;2.57;1.30;;;15.20;99.90;;;;;;4881743;29;21460;-51
2022/09/03 00:29:51;;;;;;;1.40;1.30;;;15.20;99.90;;;;;;4879478;29;20456;-51
2022/09/03 00:32:27;;;;;;;2.20;1.20;;;15.20;99.90;;;;;;4880720;29;20540;-51
2022/09/03 00:35:01;;;;;;;1.30;1.20;;;15.10;99.90;;;;;;4880046;29;20448;-51
2022/09/03 00:37:27;;;;;;;4.70;1.43;;;15.00;99.90;;;;;;4881338;29;20472;-51
2022/09/03 00:39:54;;;;;;;1.90;1.50;;;15.00;99.90;;;;;;4881337;29;20481;-51
2022/09/03 00:42:38;;;;;;;2.33;1.30;;;15.00;99.90;;;;;;4881333;29;20468;-51
2022/09/03 00:45:30;;;;;;;2.07;1.37;;;15.00;99.90;;;;;;4880755;29;20452;-52
2022/09/03 00:48:11;;;;;;;3.90;1.43;;;15.00;99.90;;;;;;4880984;29;20420;-51
2022/09/03 00:51:28;;;;;;;2.30;1.70;;;14.90;99.90;;;;;;4880197;29;20451;-52
2022/09/03 00:54:05;;;;;;;2.80;1.60;;;14.90;99.90;;;;;;4880781;29;20751;-51
2022/09/03 00:56:39;;;;;;;1.70;1.23;;;14.80;99.90;;;;;;4879988;29;20475;-51
2022/09/03 00:59:55;;;;;;;1.63;1.53;;;14.70;99.90;;;;;;4880844;29;20499;-51
2022/09/03 01:02:48;;;;;;;1.50;1.40;;;14.70;99.90;;;;;;4823076;29;20467;-56
2022/09/03 01:05:17;;;;;;;2.50;1.40;;;14.60;99.90;;;;;;4879359;29;20444;-51
2022/09/03 01:08:04;;;;;;;1.70;1.60;;;14.60;99.90;;;;;;4880763;29;20432;-52
2022/09/03 01:10:44;;;;;;;2.50;1.30;;;14.60;99.90;;;;;;4880694;29;20412;-51
2022/09/03 01:13:29;;;;;;;3.87;1.63;;;14.60;99.90;;;;;;4879854;29;20456;-51
2022/09/03 01:16:28;;;;;;;2.87;1.30;;;14.60;99.90;;;;;;4879859;29;20453;-52
2022/09/03 01:18:59;;;;;;;1.63;1.53;;;14.60;99.90;;;;;;4880526;29;20571;-51
2022/09/03 01:21:39;;;;;;;3.37;1.30;;;14.60;99.90;;;;;;4875368;29;20452;-51
2022/09/03 01:24:27;;;;;;;3.63;1.47;;;14.60;99.90;;;;;;4880289;29;20533;-51
2022/09/03 01:27:25;;;;;;;1.50;1.40;;;14.60;99.90;;;;;;4883232;29;20475;-51
2022/09/03 01:29:57;;;;;;;1.43;1.30;;;14.50;99.90;;;;;;4897758;29;20420;-51
2022/09/03 01:32:31;;;;;;;2.27;1.20;;;14.50;99.90;;;;;;4878489;29;20448;-51
2022/09/03 01:35:33;;;;;;;2.20;1.47;;;14.50;99.90;;;;;;4880555;29;20766;-51
2022/09/03 01:38:23;;;;;;;3.10;1.70;;;14.40;99.90;;;;;;4899513;29;20845;-51
2022/09/03 01:42:14;;;;;;;1.43;1.33;;;14.40;99.90;;;;;;4898983;29;20475;-51
2022/09/03 01:44:16;;;;;;;2.17;1.53;;;14.30;99.90;;;;;;4896738;29;20500;-51
2022/09/03 01:46:45;;;;;;;2.33;1.70;;;14.30;99.90;;;;;;4875496;29;20456;-51
2022/09/03 01:49:22;;;;;;;2.60;1.50;;;14.30;99.90;;;;;;4894838;29;21009;-51
2022/09/03 01:52:14;;;;;;;3.73;1.77;;;14.30;99.90;;;;;;4898997;29;20400;-51
2022/09/03 01:54:55;;;;;;;1.70;1.60;;;14.20;99.90;;;;;;4898855;29;20883;-51
2022/09/03 01:57:46;;;;;;;5.10;1.60;;;14.10;99.90;;;;;;4896475;29;20443;-52
2022/09/03 02:00:19;;;;;;;3.70;2.17;;;14.10;99.90;;;;;;4894490;29;20488;-51
2022/09/03 02:02:46;;;;;;;2.00;1.60;;;14.10;99.90;;;;;;4879124;29;20750;-51
2022/09/03 02:05:23;;;;;;;2.03;1.90;;;14.10;99.90;;;;;;4879861;29;20452;-51
2022/09/03 02:08:00;;;;;;;1.60;1.50;;;14.00;99.90;;;;;;4895534;29;20432;-51
2022/09/03 02:10:31;;;;;;;1.60;1.50;;;14.00;99.90;;;;;;4898486;29;20890;-51
2022/09/03 02:13:05;;;;;;;1.80;1.67;;;14.00;99.90;;;;;;4898691;29;20613;-51
2022/09/03 02:15:33;;;;;;;1.87;1.43;;;14.00;99.90;;;;;;4896377;29;20455;-51
2022/09/03 02:18:02;;;;;;;1.60;1.50;;;14.00;99.90;;;;;;4896658;29;20476;-52
2022/09/03 02:20:29;;;;;;;1.80;1.70;;;14.00;99.90;;;;;;4886588;29;20436;-51
2022/09/03 02:22:56;;;;;;;2.73;1.63;;;14.00;99.90;;;;;;4879518;29;20483;-51
2022/09/03 02:25:29;;;;;;;1.57;1.37;;;14.00;99.90;;;;;;4878700;29;20750;-51
2022/09/03 02:27:55;;;;;;;2.00;1.67;;;13.90;99.90;;;;;;4860460;29;20588;-52
2022/09/03 02:30:21;;;;;;;1.57;1.47;;;13.90;99.90;;;;;;4875803;29;20468;-51
2022/09/03 02:32:47;;;;;;;2.00;1.60;;;13.90;99.90;;;;;;4879002;29;20773;-51
2022/09/03 02:35:12;;;;;;;4.00;1.60;;;13.80;99.90;;;;;;4878651;29;20208;-51
2022/09/03 02:37:38;;;;;;;1.73;1.60;;;13.80;99.90;;;;;;4878949;29;20247;-51
2022/09/03 02:40:07;;;;;;;1.93;1.83;;;13.80;99.90;;;;;;4879110;29;20188;-51
2022/09/03 02:42:33;;;;;;;2.63;1.40;;;13.70;99.90;;;;;;4879028;29;20628;-51
2022/09/03 02:45:26;;;;;;;2.07;1.77;;;13.70;99.90;;;;;;4877887;29;20448;-52
2022/09/03 02:47:56;;;;;;;8.10;1.60;;;13.70;99.90;;;;;;4888120;29;20451;-52
2022/09/03 02:50:22;;;;;;;3.20;1.63;;;13.60;99.90;;;;;;4882947;29;20433;-51
2022/09/03 02:52:49;;;;;;;2.40;1.57;;;13.60;99.90;;;;;;4878095;29;20475;-51
2022/09/03 02:55:15;;;;;;;2.93;1.60;;;13.60;99.90;;;;;;4878931;29;20519;-51
2022/09/03 02:57:41;;;;;;;1.87;1.53;;;13.70;99.90;;;;;;4877403;29;21018;-51
2022/09/03 03:00:07;;;;;;;2.90;2.00;;;13.60;99.90;;;;;;4878790;29;20546;-52
2022/09/03 03:02:33;;;;;;;2.03;1.80;;;13.60;99.90;;;;;;4878703;29;20192;-52
2022/09/03 03:05:00;;;;;;;4.90;1.90;;;13.60;99.90;;;;;;4878906;29;20429;-51
2022/09/03 03:07:29;;;;;;;2.23;1.63;;;13.50;99.90;;;;;;4877889;29;20939;-51
2022/09/03 03:09:54;;;;;;;2.80;1.40;;;13.50;99.90;;;;;;4873466;29;21215;-51
2022/09/03 03:12:20;;;;;;;7.63;1.70;;;13.50;99.90;;;;;;4878140;29;20425;-53
2022/09/03 03:14:46;;;;;;;1.83;1.73;;;13.50;99.90;;;;;;4878009;29;20220;-51
2022/09/03 03:17:12;;;;;;;2.60;1.63;;;13.50;99.90;;;;;;4877687;29;20483;-51
2022/09/03 03:19:37;;;;;;;3.20;1.43;;;13.50;99.90;;;;;;4860425;29;20232;-51
2022/09/03 03:22:03;;;;;;;1.57;1.47;;;13.50;99.90;;;;;;4878298;29;20676;-51
2022/09/03 03:24:28;;;;;;;2.90;1.57;;;13.40;99.90;;;;;;4878376;29;20271;-51
2022/09/03 03:26:57;;;;;;;1.77;1.50;;;13.40;99.90;;;;;;4877923;29;20240;-51
2022/09/03 03:29:23;;;;;;;1.60;1.50;;;13.30;99.90;;;;;;4887475;29;20196;-51
2022/09/03 03:31:50;;;;;;;3.90;2.03;;;13.30;99.90;;;;;;4897311;29;20431;-51
2022/09/03 03:34:15;;;;;;;1.40;1.30;;;13.20;99.90;;;;;;4894513;29;20440;-51
2022/09/03 03:36:41;;;;;;;1.67;1.50;;;13.20;99.90;;;;;;4896964;29;20421;-51
2022/09/03 03:39:06;;;;;;;1.93;1.80;;;13.10;99.90;;;;;;4892475;29;20547;-51
2022/09/03 03:41:34;;;;;;;4.10;1.97;;;13.10;99.90;;;;;;4896798;29;20184;-52
2022/09/03 03:44:02;;;;;;;1.60;1.50;;;13.10;99.90;;;;;;4893989;29;20293;-52
2022/09/03 03:46:31;;;;;;;3.20;1.60;;;13.10;99.90;;;;;;4896919;29;20424;-51
2022/09/03 03:48:58;;;;;;;2.20;1.70;;;13.00;99.90;;;;;;4886211;29;20783;-51
2022/09/03 03:51:24;;;;;;;2.67;1.50;;;13.00;99.90;;;;;;4880798;29;20466;-51
2022/09/03 03:53:54;;;;;;;3.73;1.80;;;13.00;99.90;;;;;;4877913;29;20516;-51
2022/09/03 03:56:20;;;;;;;2.07;1.60;;;13.00;99.90;;;;;;4877427;29;20455;-51
2022/09/03 03:58:47;;;;;;;2.10;1.80;;;12.90;99.90;;;;;;4877339;29;20572;-51
2022/09/03 04:01:14;;;;;;;2.53;1.60;;;12.90;99.90;;;;;;4895633;29;20413;-51
2022/09/03 04:03:40;;;;;;;1.43;1.33;;;12.90;99.90;;;;;;4890366;29;20439;-51
2022/09/03 04:06:06;;;;;;;2.17;1.67;;;12.80;99.90;;;;;;4892873;29;20864;-51
2022/09/03 04:08:37;;;;;;;2.70;1.70;;;12.80;99.90;;;;;;4893577;29;20443;-51
2022/09/03 04:11:06;;;;;;;2.00;1.77;;;12.80;99.90;;;;;;4896445;29;20448;-51
2022/09/03 04:13:34;;;;;;;6.63;1.77;;;12.80;99.90;;;;;;4896476;29;20872;-51
2022/09/03 04:16:02;;;;;;;5.20;1.50;;;12.90;99.90;;;;;;4893390;29;20805;-51
2022/09/03 04:18:28;;;;;;;3.13;1.53;;;12.90;99.90;;;;;;4896170;29;20495;-51
2022/09/03 04:21:05;;;;;;;1.77;1.67;;;12.90;99.90;;;;;;4895034;29;20432;-51
2022/09/03 04:23:32;;;;;;;4.70;2.03;;;13.00;99.90;;;;;;4866643;29;20912;-51
2022/09/03 04:25:59;;;;;;;1.80;1.50;;;12.90;99.90;;;;;;4893035;29;20806;-51
2022/09/03 04:28:24;;;;;;;2.00;1.50;;;12.90;99.90;;;;;;4894042;29;20946;-51
2022/09/03 04:30:50;;;;;;;2.20;1.50;;;12.90;99.90;;;;;;4896110;29;20500;-51
2022/09/03 04:33:15;;;;;;;1.67;1.50;;;12.90;99.90;;;;;;4891481;29;20195;-51
2022/09/03 04:35:42;;;;;;;1.53;1.43;;;12.90;99.90;;;;;;4890753;29;20197;-51
2022/09/03 04:38:08;;;;;;;2.37;1.90;;;12.90;99.90;;;;;;4893705;29;20310;-51
2022/09/03 04:40:33;;;;;;;1.60;1.50;;;12.90;99.90;;;;;;4896344;29;20460;-51
2022/09/03 04:42:59;;;;;;;3.10;1.57;;;12.90;99.90;;;;;;4896392;29;20423;-51
2022/09/03 04:45:27;;;;;;;5.10;1.70;;;12.90;99.90;;;;;;4895986;29;20490;-51
2022/09/03 04:48:03;;;;;;;2.70;1.77;;;12.90;99.90;;;;;;4896284;29;20591;-50
2022/09/03 04:50:31;;;;;;;1.77;1.67;;;12.80;99.90;;;;;;4888592;29;20437;-51
2022/09/03 04:53:02;;;;;;;4.20;2.03;;;12.80;99.90;;;;;;4876426;29;20455;-51
2022/09/03 04:55:32;;;;;;;3.53;1.67;;;12.90;99.90;;;;;;4876506;29;20433;-51
2022/09/03 04:57:58;;;;;;;1.80;1.70;;;12.90;99.90;;;;;;4877426;29;20538;-51
2022/09/03 05:00:24;;;;;;;2.33;1.40;;;12.80;99.90;;;;;;4896101;29;20409;-51
2022/09/03 05:02:50;;;;;;;5.30;2.03;;;12.90;99.90;;;;;;4896080;29;20434;-51
2022/09/03 05:05:17;;;;;;;2.80;1.67;;;12.90;99.90;;;;;;4896011;29;20172;-51
2022/09/03 05:07:43;;;;;;;1.60;1.50;;;12.90;99.90;;;;;;4895540;29;20447;-51
2022/09/03 05:10:12;;;;;;;1.70;1.60;;;12.90;99.90;;;;;;4899063;29;20993;-51
2022/09/03 05:12:38;;;;;;;4.00;1.90;;;12.90;99.90;;;;;;4899613;29;20428;-51
2022/09/03 05:15:05;;;;;;;1.77;1.67;;;13.00;99.90;;;;;;4899676;29;20420;-51
2022/09/03 05:17:30;;;;;;;5.60;2.87;;;13.00;99.90;;;;;;4896991;29;20199;-51
2022/09/03 05:19:56;;;;;;;1.57;1.47;;;13.00;99.90;;;;;;4899539;29;20411;-51
2022/09/03 05:22:22;;;;;;;2.60;1.63;;;13.10;99.90;;;;;;4893350;29;20203;-50
2022/09/03 05:24:48;;;;;;;3.43;1.77;;;13.10;99.90;;;;;;4890209;29;20440;-51
2022/09/03 05:27:18;;;;;;;2.30;1.50;;;13.10;99.90;;;;;;4878729;29;20274;-51
2022/09/03 05:29:44;;;;;;;1.53;1.43;;;13.10;99.90;;;;;;4878747;29;20870;-51
2022/09/03 05:32:11;;;;;;;2.27;1.70;;;13.20;99.90;;;;;;4880367;29;20512;-51
2022/09/03 05:34:37;;;;;;;3.97;1.77;;;13.30;99.90;;;;;;4880150;29;20406;-51
2022/09/03 05:37:03;;;;;;;2.63;1.63;;;13.30;99.90;;;;;;4878536;29;20453;-51
2022/09/03 05:39:28;;;;;;;3.40;1.47;;;13.30;99.90;;;;;;4880125;29;20228;-51
2022/09/03 05:41:54;;;;;;;3.30;1.90;;;13.30;99.90;;;;;;4879916;29;20188;-51
2022/09/03 05:44:22;;;;;;;2.50;1.50;;;13.40;99.90;;;;;;4879372;29;20196;-51
2022/09/03 05:46:49;;;;;;;3.27;1.50;;;13.50;99.90;;;;;;4879081;29;20213;-51
2022/09/03 05:49:15;;;;;;;2.70;1.87;;;13.50;99.90;;;;;;4879473;29;20452;-51
2022/09/03 05:51:41;;;;;;;3.17;1.70;;;13.60;99.90;;;;;;4879506;29;20433;-51
2022/09/03 05:54:08;;;;;;;6.93;1.70;;;13.70;99.90;;;;;;4880415;29;20627;-51
2022/09/03 05:56:36;;;;;;;2.37;1.70;;;13.70;99.90;;;;;;4879173;29;20547;-51
2022/09/03 05:59:06;;;;;;;1.50;1.40;;;13.80;99.90;;;;;;4879682;29;20568;-51
2022/09/03 06:01:34;;;;;;;2.00;1.60;;;13.90;99.90;;;;;;4879870;29;20876;-51
2022/09/03 06:04:03;;;;;;;2.50;1.30;;;14.00;99.90;;;;;;4879661;29;20425;-51
2022/09/03 06:06:31;;;;;;;2.47;1.60;;;14.10;99.90;;;;;;4878656;29;20461;-51
2022/09/03 06:09:00;;;;;;;3.70;1.80;;;14.20;99.90;;;;;;4879652;29;20429;-51
2022/09/03 06:11:28;;;;;;;3.43;1.33;;;14.40;99.90;;;;;;4879640;29;20430;-51
2022/09/03 06:14:01;;;;;;;2.13;1.90;;;14.60;99.90;;;;;;4878851;29;20448;-51
2022/09/03 06:16:28;;;;;;;4.50;1.83;;;14.90;99.90;;;;;;4878183;29;20788;-51
2022/09/03 06:18:55;;;;;;;2.07;1.87;;;15.10;99.90;;;;;;4879567;29;20799;-51
2022/09/03 06:21:21;;;;;;;1.97;1.50;;;15.30;99.90;;;;;;4879340;29;20488;-52
2022/09/03 06:23:55;;;;;;;2.20;1.60;;;15.50;99.90;;;;;;4879518;29;20978;-51
2022/09/03 06:26:22;;;;;;;8.17;2.03;;;15.80;99.90;;;;;;4878928;29;20428;-51
2022/09/03 06:28:49;;;;;;;3.57;1.40;;;16.00;99.90;;;;;;4864831;29;20495;-51
2022/09/03 06:31:17;;;;;;;3.23;1.70;;;16.10;99.90;;;;;;4879525;29;20805;-51
2022/09/03 06:33:44;;;;;;;3.50;1.63;;;16.30;99.90;;;;;;4877411;29;20464;-51
2022/09/03 06:36:18;;;;;;;1.60;1.50;;;16.40;99.90;;;;;;4875275;29;20453;-51
2022/09/03 06:38:45;;;;;;;3.67;1.77;;;16.60;99.90;;;;;;4862404;29;20548;-51
2022/09/03 06:41:20;;;;;;;1.60;1.50;;;16.80;99.90;;;;;;4878737;29;20504;-51
2022/09/03 06:43:48;;;;;;;2.23;1.47;;;17.00;99.90;;;;;;4879287;29;20416;-51
2022/09/03 06:46:16;;;;;;;1.47;1.37;;;17.20;99.90;;;;;;4873392;29;20449;-51
2022/09/03 06:48:42;;;;;;;4.00;1.70;;;17.40;99.90;;;;;;4877043;29;20449;-51
2022/09/03 06:51:12;;;;;;;1.83;1.73;;;17.50;99.90;;;;;;4878957;29;20963;-51
2022/09/03 06:53:40;;;;;;;2.43;1.40;;;17.50;99.90;;;;;;4879114;29;20485;-51
2022/09/03 06:56:08;;;;;;;4.70;1.80;;;17.60;99.90;;;;;;4862297;29;20452;-51
2022/09/03 06:58:42;;;;;;;2.07;1.20;;;17.90;99.90;;;;;;4869411;29;20587;-51
2022/09/03 07:01:17;;;;;;;2.70;1.20;;;18.30;99.90;;;;;;4879022;29;20516;-51
2022/09/03 07:03:45;;;;;;;2.10;1.67;;;18.70;99.90;;;;;;4877875;29;20456;-51
2022/09/03 07:06:16;;;;;;;2.67;1.33;;;18.70;99.90;;;;;;4879176;29;20507;-51
2022/09/03 07:08:42;;;;;;;3.93;2.00;;;18.80;99.90;;;;;;4869225;29;20435;-51
2022/09/03 07:11:10;;;;;;;4.47;1.70;;;18.90;99.90;;;;;;4889177;29;20859;-52
2022/09/03 07:13:39;;;;;;;1.63;1.30;;;19.00;99.90;;;;;;4855496;29;20493;-51
2022/09/03 07:16:07;;;;;;;8.90;1.73;;;19.10;99.90;;;;;;4878636;29;20440;-51
2022/09/03 07:18:33;;;;;;;2.33;1.80;;;19.30;99.90;;;;;;4872967;29;20481;-51
2022/09/03 07:21:01;;;;;;;1.80;1.70;;;19.60;99.90;;;;;;4864815;29;20990;-52
2022/09/03 07:23:30;;;;;;;2.83;1.93;;;19.90;99.90;;;;;;4852408;29;20533;-52
2022/09/03 07:25:57;;;;;;;2.00;1.67;;;20.10;99.90;;;;;;4877591;29;20882;-52
2022/09/03 07:28:23;;;;;;;3.70;1.87;;;20.20;99.90;;;;;;4881111;29;20492;-52
2022/09/03 07:30:50;;;;;;;3.83;1.73;;;20.40;99.90;;;;;;4877519;29;20436;-51
2022/09/03 07:33:17;;;;;;;2.50;1.70;;;20.80;99.90;;;;;;4877832;29;20449;-51
2022/09/03 07:35:42;;;;;;;1.67;1.37;;;20.90;99.90;;;;;;4878328;29;20445;-57
2022/09/03 07:38:08;;;;;;;3.57;1.80;;;21.20;99.90;;;;;;4878190;29;20480;-57
2022/09/03 07:40:34;;;;;;;9.33;1.67;;;21.50;99.90;;;;;;4878711;29;20184;-57
2022/09/03 07:43:03;;;;;;;2.70;1.60;;;21.70;99.90;;;;;;4878143;29;20244;-57
2022/09/03 07:45:30;;;;;;;7.10;1.50;;;22.10;99.90;;;;;;4878563;29;20269;-57
2022/09/03 07:47:56;;;;;;;4.10;1.77;;;22.30;99.90;;;;;;4891349;29;20455;-57
2022/09/03 07:50:22;;;;;;;1.70;1.60;;;22.50;99.90;;;;;;4885095;29;21162;-57
2022/09/03 07:52:48;;;;;;;3.37;1.50;;;22.50;99.90;;;;;;4881794;29;20962;-55
2022/09/03 07:55:14;;;;;;;1.60;1.50;;;22.80;99.90;;;;;;4877019;29;20456;-57
2022/09/03 07:57:39;;;;;;;2.97;1.53;;;23.20;99.90;;;;;;4876517;29;20200;-57
2022/09/03 08:00:10;;;;;;;4.90;1.53;;;23.60;99.90;;;;;;4877757;29;20180;-57
2022/09/03 08:02:35;;;;;;;2.67;1.50;;;23.80;99.90;;;;;;4877565;29;20251;-57
2022/09/03 08:05:01;;;;;;;3.40;1.57;;;24.10;99.90;;;;;;4877570;29;20540;-57
2022/09/03 08:07:29;;;;;;;1.87;1.27;;;24.30;99.90;;;;;;4877334;29;20191;-55
2022/09/03 08:09:55;;;;;;;5.03;1.57;;;24.40;99.90;;;;;;4877207;29;20248;-57
2022/09/03 08:12:22;;;;;;;3.10;1.60;;;24.50;99.90;;;;;;4877196;29;20444;-57
2022/09/03 08:14:48;;;;;;;2.37;1.30;;;24.80;99.90;;;;;;4871715;29;20464;-57
2022/09/03 08:17:13;;;;;;;3.60;1.67;;;25.20;99.90;;;;;;4877262;29;21028;-57
2022/09/03 08:19:40;;;;;;;2.07;1.50;;;25.10;99.90;;;;;;4877372;29;20594;-57
2022/09/03 08:22:06;;;;;;;16.57;1.73;;;25.20;99.90;;;;;;4877263;29;20187;-57
2022/09/03 08:24:34;;;;;;;2.37;1.77;;;25.20;99.90;;;;;;4877418;29;20413;-57
2022/09/03 08:27:00;;;;;;;3.30;1.50;;;25.40;99.90;;;;;;4881796;29;20499;-57
2022/09/03 08:29:26;;;;;;;1.70;1.40;;;25.70;99.90;;;;;;4889398;29;20432;-56
2022/09/03 08:31:52;;;;;;;2.90;1.70;;;26.10;99.90;;;;;;4875975;29;20196;-55
2022/09/03 08:34:18;;;;;;;1.97;1.70;;;26.00;99.90;;;;;;4877323;29;20500;-58
2022/09/03 08:36:45;;;;;;;1.90;1.50;;;25.40;99.90;;;;;;4877030;29;20429;-57
2022/09/03 08:39:12;;;;;;;2.70;1.60;;;24.90;99.90;;;;;;4876828;29;20555;-57
2022/09/03 08:42:04;;;;;;;3.27;1.67;;;24.60;99.90;;;;;;4877251;29;20797;-57
2022/09/03 08:44:48;;;;;;;5.03;1.70;;;24.10;99.90;;;;;;4880790;29;20803;-62
2022/09/03 08:47:32;;;;;;;1.80;1.70;;;23.90;99.90;;;;;;4876772;29;20420;-57
2022/09/03 08:50:03;;;;;;;2.50;1.50;;;24.50;99.90;;;;;;4862908;29;20445;-57
2022/09/03 08:52:41;;;;;;;2.83;1.60;;;25.40;99.90;;;;;;4860898;29;20446;-58
2022/09/03 08:55:30;;;;;;;3.03;1.90;;;25.70;99.90;;;;;;4862211;29;21029;-56
2022/09/03 08:58:10;;;;;;;1.60;1.50;;;26.00;99.90;;;;;;4862244;29;20469;-58
2022/09/03 09:01:00;;;;;;;1.87;1.40;;;25.90;99.90;;;;;;4861867;29;20744;-57
2022/09/03 09:03:31;;;;;;;3.87;1.40;;;25.50;99.90;;;;;;4862004;29;20410;-57
2022/09/03 09:06:17;;;;;;;1.90;1.70;;;24.60;99.90;;;;;;4861939;29;20410;-57
2022/09/03 09:09:04;;;;;;;2.80;1.20;;;24.10;99.90;;;;;;4876989;29;20456;-57
2022/09/03 09:12:05;;;;;;;2.00;1.50;;;24.30;99.90;;;;;;4880520;29;20413;-56
2022/09/03 09:14:43;;;;;;;2.03;1.70;;;24.70;99.90;;;;;;4848203;29;21139;-58
2022/09/03 09:17:39;;;;;;;1.50;1.40;;;25.10;99.90;;;;;;4880123;29;20769;-57
2022/09/03 09:20:27;;;;;;;1.93;1.63;;;25.10;99.90;;;;;;4874555;29;20456;-57
2022/09/03 09:23:05;;;;;;;6.70;1.70;;;25.10;99.90;;;;;;4879977;29;20472;-58
2022/09/03 09:25:38;;;;;;;1.60;1.30;;;25.00;99.90;;;;;;4879542;29;20435;-56
2022/09/03 09:28:16;;;;;;;5.07;1.57;;;24.80;99.90;;;;;;4879357;29;20916;-57
2022/09/03 09:30:44;;;;;;;3.60;1.50;;;24.90;99.90;;;;;;4880119;29;20921;-57
2022/09/03 09:33:10;;;;;;;6.43;1.50;;;24.60;99.90;;;;;;4863257;29;20449;-57
2022/09/03 09:35:40;;;;;;;1.67;1.47;;;24.40;99.90;;;;;;4881488;29;20459;-57
2022/09/03 09:38:05;;;;;;;2.57;1.40;;;24.10;99.90;;;;;;4875747;29;20822;-56
2022/09/03 09:40:37;;;;;;;5.80;1.40;;;23.90;99.90;;;;;;4880014;29;20409;-57
2022/09/03 09:43:19;;;;;;;3.30;1.30;;;23.70;99.90;;;;;;4879913;29;20180;-56
2022/09/03 09:45:47;;;;;;;5.20;1.70;;;23.40;99.90;;;;;;4880107;29;20489;-56
2022/09/03 09:48:30;;;;;;;8.37;1.57;;;23.20;99.90;;;;;;4879772;29;20429;-57
2022/09/03 09:51:09;;;;;;;1.90;1.50;;;23.20;99.90;;;;;;4863173;29;20527;-59
2022/09/03 09:53:35;;;;;;;5.63;1.30;;;23.10;99.90;;;;;;4879665;29;20939;-57
2022/09/03 09:56:03;;;;;;;1.77;1.33;;;23.30;99.90;;;;;;4879646;29;20425;-58
2022/09/03 09:58:31;;;;;;;2.17;1.47;;;23.40;99.90;;;;;;4879227;29;21329;-57
2022/09/03 10:01:13;;;;;;;2.43;1.37;;;23.40;99.90;;;;;;4879520;29;20440;-57
2022/09/03 10:03:47;;;;;;;2.17;1.73;;;23.50;99.90;;;;;;4862818;29;20464;-57
2022/09/03 10:09:14;;;;;;;2.80;1.90;;;23.60;99.90;;;;;;4879826;29;21345;-57
2022/09/03 10:11:50;;;;;;;1.20;1.10;;;23.60;99.90;;;;;;4879279;29;20459;-56
2022/09/03 10:14:35;;;;;;;4.30;1.40;;;23.40;99.90;;;;;;4879420;29;21247;-56
2022/09/03 10:17:17;;;;;;;3.87;1.70;;;23.30;99.90;;;;;;4875342;29;20428;-57
2022/09/03 10:23:03;;;;;;;1.73;1.20;;;22.70;99.90;;;;;;4803286;29;20942;-57
2022/09/03 10:25:50;;;;;;;4.73;1.47;;;22.50;99.90;;;;;;4866124;29;20931;-57
2022/09/03 10:28:17;;;;;;;3.53;1.30;;;22.60;99.90;;;;;;4878946;29;20668;-56
2022/09/03 10:31:12;;;;;;;2.53;1.17;;;23.10;99.90;;;;;;4879018;29;20428;-57
2022/09/03 10:33:55;;;;;;;5.70;1.30;;;23.90;99.90;;;;;;4878803;29;20472;-57
2022/09/03 10:36:32;;;;;;;5.10;1.30;;;24.80;99.90;;;;;;4874009;29;21092;-57
2022/09/03 10:39:13;;;;;;;3.53;1.40;;;25.30;99.90;;;;;;4878884;29;20468;-55
2022/09/03 10:42:11;;;;;;;5.20;1.67;;;25.80;99.90;;;;;;4879338;29;21311;-57
2022/09/03 10:45:00;;;;;;;2.33;1.30;;;26.30;99.90;;;;;;4878572;29;20433;-57
2022/09/03 10:47:48;;;;;;;3.17;1.30;;;27.00;99.90;;;;;;4878958;29;20410;-57
2022/09/03 10:50:22;;;;;;;3.73;1.60;;;27.30;99.90;;;;;;4878491;29;20417;-56
2022/09/03 10:53:08;;;;;;;4.27;1.40;;;27.50;99.90;;;;;;4878683;29;20436;-58
2022/09/03 10:56:16;;;;;;;2.10;1.20;;;27.70;99.90;;;;;;4878758;29;20413;-56
2022/09/03 10:59:10;;;;;;;6.60;1.47;;;28.10;99.90;;;;;;4878740;29;20471;-58
2022/09/03 11:02:00;;;;;;;2.77;1.30;;;28.60;99.90;;;;;;4861582;29;20441;-55
2022/09/03 11:04:48;;;;;;;2.80;1.50;;;28.70;99.90;;;;;;4878072;29;20458;-56
2022/09/03 11:07:19;;;;;;;2.60;1.50;;;28.90;99.90;;;;;;4877048;29;20429;-57
2022/09/03 11:09:52;;;;;;;9.30;1.50;;;29.00;99.90;;;;;;4879632;29;20516;-58
2022/09/03 11:12:21;;;;;;;5.73;1.60;;;28.90;99.90;;;;;;4864365;29;20568;-58
2022/09/03 11:15:04;;;;;;;4.60;1.53;;;28.10;99.90;;;;;;4874492;29;21050;-57
2022/09/03 11:17:41;;;;;;;2.07;1.40;;;28.20;99.90;;;;;;4876289;29;20440;-57
2022/09/03 11:20:19;;;;;;;3.80;1.60;;;29.10;99.90;;;;;;4860816;29;20440;-52
2022/09/03 11:22:47;;;;;;;2.77;1.57;;;28.60;99.90;;;;;;4876420;29;20425;-52
2022/09/03 11:25:16;;;;;;;1.40;1.30;;;28.50;99.90;;;;;;4877048;29;20501;-57
2022/09/03 11:27:41;;;;;;;4.13;1.50;;;28.20;99.90;;;;;;4877874;29;20472;-57
2022/09/03 11:30:50;;;;;;;4.50;4.20;;;27.70;99.90;;;;;;4877194;29;20935;-57
2022/09/03 11:33:22;;;;;;;6.63;2.50;;;28.00;99.90;;;;;;4875545;29;20193;-57
2022/09/03 11:35:59;;;;;;;2.53;1.50;;;27.80;99.90;;;;;;4877621;29;20441;-56
2022/09/03 11:38:29;;;;;;;3.97;2.23;;;27.30;99.90;;;;;;4877598;29;20460;-57
2022/09/03 11:41:01;;;;;;;3.10;2.00;;;26.70;99.90;;;;;;4877914;29;20416;-57
2022/09/03 11:43:29;;;;;;;4.03;2.33;;;26.10;99.90;;;;;;4880139;29;20845;-57
2022/09/03 11:46:28;;;;;;;5.30;2.80;;;26.90;99.90;;;;;;4878341;29;20461;-58
2022/09/03 11:49:24;;;;;;;2.53;1.50;;;28.30;99.90;;;;;;4875986;29;20445;-57
2022/09/03 11:51:59;;;;;;;1.90;1.67;;;29.40;99.90;;;;;;4859780;29;20457;-56
2022/09/03 11:54:26;;;;;;;3.60;1.70;;;29.90;99.90;;;;;;4877624;29;20412;-58
2022/09/03 11:57:12;;;;;;;3.00;2.00;;;30.10;99.90;;;;;;4877330;29;20806;-57
2022/09/03 11:59:42;;;;;;;3.80;2.10;;;30.60;99.90;;;;;;4877501;29;20543;-55
2022/09/03 12:02:26;;;;;;;4.23;1.90;;;31.20;99.90;;;;;;4877361;29;20452;-56
2022/09/03 12:05:14;;;;;;;1.70;1.53;;;31.50;99.90;;;;;;4877471;29;20425;-57
2022/09/03 12:07:43;;;;;;;9.10;1.60;;;31.20;99.90;;;;;;4877322;29;20448;-56
2022/09/03 12:10:17;;;;;;;1.63;1.30;;;31.20;99.90;;;;;;4877280;29;20425;-57
2022/09/03 12:12:45;;;;;;;2.47;1.30;;;31.40;99.90;;;;;;4877300;29;20428;-56
2022/09/03 12:15:30;;;;;;;3.47;1.83;;;31.40;99.90;;;;;;4886626;29;20467;-57
2022/09/03 12:18:21;;;;;;;2.10;1.50;;;32.00;99.90;;;;;;4867729;29;20878;-57
2022/09/03 12:21:08;;;;;;;2.40;1.47;;;32.10;99.90;;;;;;4876393;29;20476;-56
2022/09/03 12:23:33;;;;;;;1.83;1.40;;;31.20;99.90;;;;;;4876086;29;20966;-56
2022/09/03 12:26:15;;;;;;;2.13;1.30;;;31.00;99.90;;;;;;4858016;29;20485;-58
2022/09/03 12:28:47;;;;;;;1.50;1.40;;;30.90;99.90;;;;;;4874657;29;20706;-58
2022/09/03 12:31:22;;;;;;;2.13;1.17;;;30.80;99.90;;;;;;4875973;29;22341;-57
2022/09/03 12:33:59;;;;;;;6.23;1.70;;;30.00;99.90;;;;;;4877255;29;20511;-57
2022/09/03 12:36:35;;;;;;;3.97;1.30;;;30.10;99.90;;;;;;4876255;29;20961;-57
2022/09/03 12:39:28;;;;;;;4.53;1.40;;;30.00;99.90;;;;;;4858713;29;21025;-57
2022/09/03 12:42:05;;;;;;;1.40;1.30;;;30.10;99.90;;;;;;4875933;29;20457;-57
2022/09/03 12:44:34;;;;;;;3.10;1.70;;;30.40;99.90;;;;;;4885122;29;20677;-57
2022/09/03 12:47:02;;;;;;;1.97;1.40;;;30.40;99.90;;;;;;4891607;29;20451;-57
2022/09/03 12:49:33;;;;;;;3.93;1.33;;;30.10;99.90;;;;;;4895911;29;21039;-56
2022/09/03 12:52:16;;;;;;;1.33;1.20;;;29.80;99.90;;;;;;4892646;29;20453;-57
2022/09/03 12:54:54;;;;;;;1.57;1.40;;;30.00;99.90;;;;;;4895858;29;20416;-57
2022/09/03 12:57:26;;;;;;;2.90;1.50;;;30.30;99.90;;;;;;4878618;29;20444;-57
2022/09/03 12:59:59;;;;;;;2.53;1.50;;;30.10;99.90;;;;;;4876997;29;20963;-57
2022/09/03 13:02:46;;;;;;;7.73;1.50;;;29.20;99.90;;;;;;4877280;29;20515;-56
2022/09/03 13:05:17;;;;;;;1.63;1.30;;;28.80;99.90;;;;;;4894506;29;20422;-57
2022/09/03 13:07:51;;;;;;;6.10;1.60;;;29.00;99.90;;;;;;4886797;29;20444;-57
2022/09/03 13:10:30;;;;;;;1.63;1.50;;;29.30;99.90;;;;;;4863341;29;20742;-56
2022/09/03 13:13:01;;;;;;;2.00;1.40;;;29.60;99.90;;;;;;4858301;29;20466;-57
2022/09/03 13:15:27;;;;;;;1.23;1.10;;;30.00;99.90;;;;;;4871939;29;20444;-57
2022/09/03 13:18:07;;;;;;;7.13;1.30;;;30.20;99.90;;;;;;4876083;29;20496;-57
2022/09/03 13:20:47;;;;;;;4.70;1.57;;;30.20;99.90;;;;;;4858450;29;21075;-57
2022/09/03 13:23:34;;;;;;;2.17;1.60;;;30.10;99.90;;;;;;4867831;29;20766;-57
2022/09/03 13:26:31;;;;;;;2.30;1.37;;;30.10;99.90;;;;;;4876773;29;20496;-57